»·PEaware :: WAT169 KLAS-KSNA

WAT169 :: KLAS-KSNA

FLIGHT INFORMATION

Flight Status: Arrived
Operator:
Walker Air Transport
More flights by this operator :: More flights under this callsign
Pilot: Marty P. (27464)
Aircraft: BOEING 737-800
(B738)
More flights by this aircraft type
Origin: KLAS McCarran Intl
United States
Destination: KSNA John Wayne-Orange Co
United States
More flights between these airports :: More routes between these airports
Route: RADYR1 SLVRR FEYLA DSNEE4
File this flight plan on PilotEdge
Remarks:
Altitude:
(Current/Filed)
28,000ft
Speed:
(Current/Filed)
480kts
Departed: 04-Apr-21 09:36 AM
Arrived: 04-Apr-21 10:16 AM
Distance/Time
Traveled:
197nm/0:40
Distance/Time
To Go:
Arrived

Flight Plot

Page will automatically refresh every two minutes.

Flight plan parsing failed; only flown route is shown


Map Options




Map Legend


Flown Route
Filed Route
Departure Airport
Arrival Airport
Navaid (VOR, NDB)
Fix

Horizontal Profiles

Position Reports

Time Latitude Longitude Heading Altitude Ground
Speed
04-Apr-21 09:14 36.081005 -115.147688 66 2099ft 0kts
04-Apr-21 09:15 36.081005 -115.147687 66 2099ft 0kts
04-Apr-21 09:16 36.081005 -115.147687 66 2099ft 0kts
04-Apr-21 09:17 36.081005 -115.147687 66 2099ft 0kts
04-Apr-21 09:18 36.081005 -115.147687 66 2099ft 0kts
04-Apr-21 09:19 36.081005 -115.147687 66 2099ft 0kts
04-Apr-21 09:20 36.081005 -115.147687 66 2099ft 0kts
04-Apr-21 09:21 36.081005 -115.147687 66 2099ft 0kts
04-Apr-21 09:22 36.081005 -115.147687 66 2099ft 0kts
04-Apr-21 09:23 36.081005 -115.147687 66 2099ft 0kts
04-Apr-21 09:24 36.081005 -115.147688 66 2099ft 0kts
04-Apr-21 09:25 36.081001 -115.147700 66 2099ft 1kts
04-Apr-21 09:26 36.080936 -115.148392 129 2102ft 2kts
04-Apr-21 09:27 36.081104 -115.148537 156 2102ft 0kts
04-Apr-21 09:28 36.081104 -115.148537 156 2102ft 0kts
04-Apr-21 09:29 36.079367 -115.147548 155 2101ft 13kts
04-Apr-21 09:30 36.078268 -115.143140 90 2090ft 18kts
04-Apr-21 09:31 36.078270 -115.135562 89 2066ft 25kts
04-Apr-21 09:32 36.078279 -115.127219 90 2047ft 23kts
04-Apr-21 09:33 36.077814 -115.122019 128 2039ft 13kts
04-Apr-21 09:34 36.076442 -115.121688 270 2041ft 3kts
04-Apr-21 09:35 36.076673 -115.163738 272 3108ft 188kts
04-Apr-21 09:36 36.070787 -115.239819 247 5976ft 258kts
04-Apr-21 09:37 36.011232 -115.285707 198 7991ft 262kts
04-Apr-21 09:38 35.940194 -115.305216 191 10839ft 275kts
04-Apr-21 09:39 35.852951 -115.325986 193 12651ft 353kts
04-Apr-21 09:40 35.754522 -115.351599 194 15729ft 373kts
04-Apr-21 09:41 35.651145 -115.380391 203 18402ft 388kts
04-Apr-21 09:42 35.560050 -115.456386 228 19098ft 410kts
04-Apr-21 09:43 35.485518 -115.555211 230 21856ft 392kts
04-Apr-21 09:44 35.411500 -115.654843 230 24076ft 400kts
04-Apr-21 09:45 35.337697 -115.753753 231 27354ft 373kts
04-Apr-21 09:46 35.265191 -115.850475 231 28120ft 408kts
04-Apr-21 09:47 35.183144 -115.957454 229 28118ft 455kts
04-Apr-21 09:48 35.093787 -116.069608 229 28117ft 457kts
04-Apr-21 09:49 35.005301 -116.180794 229 28127ft 459kts
04-Apr-21 09:50 34.916207 -116.292531 229 28135ft 459kts
04-Apr-21 09:51 34.833878 -116.396069 230 27537ft 402kts
04-Apr-21 09:52 34.759285 -116.491041 230 26142ft 384kts
04-Apr-21 09:53 34.684239 -116.582957 224 25098ft 376kts
04-Apr-21 09:54 34.604050 -116.662205 222 22774ft 371kts
04-Apr-21 09:55 34.524598 -116.739802 222 20526ft 362kts
04-Apr-21 09:56 34.452157 -116.820001 226 18623ft 350kts
04-Apr-21 09:57 34.383481 -116.899774 226 16609ft 341kts
04-Apr-21 09:58 34.315850 -116.977976 225 14524ft 331kts
04-Apr-21 09:59 34.247323 -117.048280 213 13112ft 326kts
04-Apr-21 10:00 34.170661 -117.102655 208 12004ft 324kts
04-Apr-21 10:01 34.088023 -117.147264 206 12008ft 324kts
04-Apr-21 10:02 34.006671 -117.192644 214 11611ft 315kts
04-Apr-21 10:03 33.949417 -117.261834 231 10568ft 256kts
04-Apr-21 10:04 33.905581 -117.323810 233 8855ft 241kts
04-Apr-21 10:05 33.862743 -117.384431 233 7997ft 239kts
04-Apr-21 10:06 33.820637 -117.445632 240 7892ft 232kts
04-Apr-21 10:07 33.796488 -117.517450 261 7596ft 232kts
04-Apr-21 10:08 33.804300 -117.591684 299 7031ft 226kts
04-Apr-21 10:09 33.839421 -117.654226 302 5148ft 225kts
04-Apr-21 10:10 33.866964 -117.720723 276 2995ft 219kts
04-Apr-21 10:11 33.828843 -117.771826 206 3000ft 221kts
04-Apr-21 10:12 33.778024 -117.803871 207 2222ft 192kts
04-Apr-21 10:13 33.732730 -117.832641 208 1216ft 164kts
04-Apr-21 10:14 33.693937 -117.857265 208 370ft 156kts
04-Apr-21 10:15 33.669748 -117.872116 163 66ft 17kts
04-Apr-21 10:16 33.671291 -117.868715 35 66ft 18kts
04-Apr-21 10:17 33.674904 -117.865969 27 66ft 11kts
04-Apr-21 10:18 33.675015 -117.865098 117 66ft 0kts
04-Apr-21 10:19 33.675015 -117.865098 117 66ft 0kts
04-Apr-21 10:20 33.675015 -117.865098 117 66ft 0kts
04-Apr-21 10:21 33.675015 -117.865098 117 66ft 0kts

Navigation Log

Ident Type
Flight plan parsing failed, navigation log unavailable